Time;durP1;ratioP1;P1;durP2;ratioP2;P2;SDS_P1;SDS_P2;PMS_P1;PMS_P2;Temp;Humidity;BMP_temperature;BMP_pressure;BME280_temperature;BME280_humidity;BME280_pressure;Samples;Min_cycle;Max_cycle;Signal;HPM_P1;HPM_P2
2022/11/09 00:00:16;;;;;;;5.40;2.03;;;13.50;99.10;;;;;;4939845;28;20464;-84
2022/11/09 00:02:44;;;;;;;5.57;2.70;;;13.50;99.10;;;;;;4939830;29;20844;-84
2022/11/09 00:05:11;;;;;;;5.60;2.70;;;13.40;99.50;;;;;;4939980;29;20463;-83
2022/11/09 00:07:37;;;;;;;5.00;3.00;;;13.40;99.70;;;;;;4940202;29;20574;-85
2022/11/09 00:10:05;;;;;;;4.87;2.93;;;13.30;99.90;;;;;;4940815;29;20460;-84
2022/11/09 00:12:32;;;;;;;4.50;2.80;;;13.30;99.70;;;;;;4941865;29;20484;-86
2022/11/09 00:14:58;;;;;;;5.67;2.87;;;13.30;99.50;;;;;;4944142;29;20460;-85
2022/11/09 00:17:25;;;;;;;6.63;3.00;;;13.40;99.40;;;;;;4943304;29;20489;-84
2022/11/09 00:19:53;;;;;;;5.70;2.50;;;13.20;99.50;;;;;;4943605;29;20479;-84
2022/11/09 00:22:21;;;;;;;5.53;2.40;;;13.40;99.00;;;;;;4943560;28;20899;-85
2022/11/09 00:24:47;;;;;;;7.07;2.90;;;13.40;99.00;;;;;;4943686;29;20456;-84
2022/11/09 00:27:14;;;;;;;5.50;2.40;;;13.40;99.00;;;;;;4942751;28;20493;-84
2022/11/09 00:29:41;;;;;;;5.60;2.77;;;13.40;99.00;;;;;;4942642;29;20894;-85
2022/11/09 00:32:08;;;;;;;6.93;2.87;;;13.30;99.00;;;;;;4943490;29;20491;-87
2022/11/09 00:34:34;;;;;;;6.50;2.70;;;13.30;99.00;;;;;;4943485;29;20460;-86
2022/11/09 00:37:03;;;;;;;8.70;2.50;;;13.30;99.00;;;;;;4943608;29;20463;-86
2022/11/09 00:39:29;;;;;;;6.13;2.73;;;13.40;99.00;;;;;;4943295;29;20479;-86
2022/11/09 00:41:56;;;;;;;4.73;2.67;;;13.20;98.90;;;;;;4942303;29;20963;-86
2022/11/09 00:44:23;;;;;;;7.37;3.47;;;13.20;99.00;;;;;;4942900;29;20456;-86
2022/11/09 00:46:50;;;;;;;5.83;2.67;;;13.30;98.90;;;;;;4942485;29;20457;-86
2022/11/09 00:49:16;;;;;;;5.40;2.37;;;13.60;97.60;;;;;;4943839;29;20539;-87
2022/11/09 00:51:43;;;;;;;10.93;2.70;;;13.60;97.20;;;;;;4942969;29;20484;-87
2022/11/09 00:54:12;;;;;;;7.10;2.20;;;13.70;96.40;;;;;;4943657;29;20532;-88
2022/11/09 00:56:38;;;;;;;9.27;2.90;;;13.80;96.10;;;;;;4943131;28;20453;-86
2022/11/09 00:59:05;;;;;;;9.03;2.80;;;13.70;96.20;;;;;;4943113;29;20480;-87
2022/11/09 01:01:32;;;;;;;6.00;2.90;;;13.80;96.50;;;;;;4943842;29;20460;-87
2022/11/09 01:03:59;;;;;;;10.93;2.20;;;13.80;96.50;;;;;;4943624;29;20487;-87
2022/11/09 01:06:26;;;;;;;12.67;2.60;;;13.80;95.90;;;;;;4943842;29;20461;-86
2022/11/09 01:08:53;;;;;;;11.57;2.80;;;13.80;96.20;;;;;;4942731;29;20858;-86
2022/11/09 01:11:23;;;;;;;9.20;2.70;;;13.80;96.10;;;;;;4942831;29;20994;-87
2022/11/09 01:13:49;;;;;;;11.93;3.27;;;13.80;96.20;;;;;;4943279;29;20452;-87
2022/11/09 01:16:18;;;;;;;5.67;2.20;;;13.70;96.50;;;;;;4943589;29;20464;-87
2022/11/09 01:18:46;;;;;;;8.57;4.13;;;13.70;96.50;;;;;;4942952;29;21012;-88
2022/11/09 01:21:14;;;;;;;7.70;2.63;;;13.80;96.40;;;;;;4943549;29;20556;-87
2022/11/09 01:23:42;;;;;;;7.57;2.63;;;13.90;96.20;;;;;;4943684;29;20456;-87
2022/11/09 01:26:11;;;;;;;13.73;2.87;;;14.00;95.70;;;;;;4943408;29;20509;-86
2022/11/09 01:28:39;;;;;;;6.77;2.10;;;14.00;95.40;;;;;;4944095;28;20480;-87
2022/11/09 01:31:08;;;;;;;7.53;2.30;;;14.00;95.40;;;;;;4942827;29;20480;-86
2022/11/09 01:33:36;;;;;;;10.33;2.47;;;13.90;95.30;;;;;;4944189;29;20468;-87
2022/11/09 01:36:03;;;;;;;8.23;1.93;;;13.90;95.50;;;;;;4942736;29;20916;-87
2022/11/09 01:38:30;;;;;;;4.90;1.90;;;13.90;95.40;;;;;;4943557;29;20472;-86
2022/11/09 01:40:56;;;;;;;4.20;1.50;;;13.90;95.40;;;;;;4943315;29;20534;-87
2022/11/09 01:43:24;;;;;;;4.90;2.03;;;13.80;95.60;;;;;;4941465;29;20452;-86
2022/11/09 01:45:56;;;;;;;6.60;1.40;;;13.80;95.40;;;;;;4941997;29;20539;-86
2022/11/09 01:48:35;;;;;;;6.13;1.70;;;13.90;95.30;;;;;;4942850;29;20480;-87
2022/11/09 01:51:07;;;;;;;4.00;1.27;;;13.80;95.30;;;;;;4941779;29;20484;-87
2022/11/09 01:53:38;;;;;;;8.83;1.83;;;13.80;95.30;;;;;;4942396;29;20471;-87
2022/11/09 01:56:09;;;;;;;9.33;1.47;;;13.70;95.50;;;;;;4942196;28;20465;-86
2022/11/09 01:58:42;;;;;;;5.93;2.30;;;13.70;95.90;;;;;;4941908;29;20481;-86
2022/11/09 02:01:12;;;;;;;9.43;2.27;;;13.70;95.90;;;;;;4941972;29;20457;-86
2022/11/09 02:03:42;;;;;;;7.07;2.73;;;13.80;95.80;;;;;;4942160;29;20457;-86
2022/11/09 02:06:14;;;;;;;17.30;2.77;;;13.70;95.70;;;;;;4942339;29;20483;-87
2022/11/09 02:08:42;;;;;;;13.37;3.10;;;13.70;95.90;;;;;;4941776;29;21000;-87
2022/11/09 02:11:11;;;;;;;11.30;2.33;;;13.80;95.60;;;;;;4942041;29;21335;-87
2022/11/09 02:13:41;;;;;;;12.23;2.80;;;13.90;95.50;;;;;;4943479;29;20483;-86
2022/11/09 02:16:12;;;;;;;7.07;2.60;;;13.90;95.40;;;;;;4942989;29;20496;-86
2022/11/09 02:18:47;;;;;;;5.87;2.60;;;13.90;95.20;;;;;;4942121;29;20484;-86
2022/11/09 02:21:15;;;;;;;9.40;2.60;;;13.80;95.10;;;;;;4941576;29;20458;-86
2022/11/09 02:23:42;;;;;;;11.03;2.43;;;13.80;95.40;;;;;;4942341;29;20832;-87
2022/11/09 02:26:13;;;;;;;5.53;2.30;;;13.60;95.60;;;;;;4942369;29;20452;-86
2022/11/09 02:28:42;;;;;;;16.90;2.10;;;13.50;95.80;;;;;;4942252;29;20504;-86
2022/11/09 02:31:11;;;;;;;5.20;1.83;;;13.50;95.70;;;;;;4943192;29;20461;-87
2022/11/09 02:33:53;;;;;;;8.80;2.10;;;13.50;95.60;;;;;;4941520;29;20462;-86
2022/11/09 02:36:22;;;;;;;7.40;1.83;;;13.50;95.70;;;;;;4942327;29;20468;-87
2022/11/09 02:38:49;;;;;;;7.37;2.00;;;13.40;95.70;;;;;;4942024;28;20484;-86
2022/11/09 02:41:17;;;;;;;7.83;1.73;;;13.30;95.90;;;;;;4941737;29;20457;-86
2022/11/09 02:43:44;;;;;;;11.10;1.70;;;13.20;96.20;;;;;;4940789;29;20460;-86
2022/11/09 02:46:11;;;;;;;5.03;1.70;;;13.10;96.40;;;;;;4941650;29;20951;-86
2022/11/09 02:48:37;;;;;;;6.07;1.63;;;13.10;96.50;;;;;;4940793;29;20475;-85
2022/11/09 02:51:04;;;;;;;5.10;1.50;;;13.10;96.50;;;;;;4942171;28;20473;-87
2022/11/09 02:53:32;;;;;;;7.27;2.10;;;13.20;96.50;;;;;;4941170;29;20460;-86
2022/11/09 02:55:59;;;;;;;10.33;1.57;;;13.30;96.10;;;;;;4940543;29;20479;-87
2022/11/09 02:58:26;;;;;;;7.63;1.87;;;13.40;95.70;;;;;;4940699;29;20488;-87
2022/11/09 03:00:53;;;;;;;6.40;1.70;;;13.60;95.50;;;;;;4940989;29;20901;-87
2022/11/09 03:03:20;;;;;;;15.60;1.83;;;13.60;95.10;;;;;;4941647;29;20532;-87
2022/11/09 03:05:46;;;;;;;7.03;1.60;;;13.70;95.30;;;;;;4941420;29;20457;-87
2022/11/09 03:08:13;;;;;;;3.80;1.30;;;13.50;95.40;;;;;;4941350;29;20483;-86
2022/11/09 03:10:41;;;;;;;9.47;2.20;;;13.80;95.20;;;;;;4941540;29;20467;-86
2022/11/09 03:13:08;;;;;;;8.20;1.60;;;13.80;94.80;;;;;;4941421;29;20539;-86
2022/11/09 03:15:36;;;;;;;6.33;1.47;;;13.80;94.70;;;;;;4942415;29;20457;-87
2022/11/09 03:18:04;;;;;;;9.70;1.60;;;13.90;94.70;;;;;;4942197;29;21035;-88
2022/11/09 03:20:30;;;;;;;8.83;1.70;;;14.00;94.70;;;;;;4941648;29;20457;-87
2022/11/09 03:22:58;;;;;;;9.03;1.80;;;14.00;94.40;;;;;;4942334;28;20465;-87
2022/11/09 03:25:25;;;;;;;7.83;2.20;;;14.10;94.50;;;;;;4942195;29;20462;-86
2022/11/09 03:27:58;;;;;;;9.43;1.80;;;14.10;94.70;;;;;;4943024;29;20855;-86
2022/11/09 03:30:25;;;;;;;5.87;2.00;;;13.90;95.00;;;;;;4941916;29;20461;-86
2022/11/09 03:32:57;;;;;;;9.17;2.30;;;13.80;95.20;;;;;;4942368;29;20487;-87
2022/11/09 03:35:24;;;;;;;6.30;2.10;;;13.80;95.30;;;;;;4942161;29;20463;-86
2022/11/09 03:37:51;;;;;;;6.80;1.67;;;14.00;95.20;;;;;;4941637;29;20478;-87
2022/11/09 03:40:18;;;;;;;7.33;1.83;;;13.90;95.10;;;;;;4940748;29;20457;-86
2022/11/09 03:42:45;;;;;;;6.60;1.40;;;14.00;94.90;;;;;;4940623;29;20863;-87
2022/11/09 03:45:14;;;;;;;6.27;1.83;;;14.00;95.10;;;;;;4942037;29;20837;-86
2022/11/09 03:47:41;;;;;;;6.13;2.50;;;14.00;94.90;;;;;;4943633;29;20490;-86
2022/11/09 03:50:09;;;;;;;6.80;2.17;;;14.00;94.80;;;;;;4945288;28;20935;-86
2022/11/09 03:52:36;;;;;;;10.67;2.80;;;14.00;95.00;;;;;;4944830;29;21077;-86
2022/11/09 03:55:03;;;;;;;8.10;2.20;;;14.00;95.20;;;;;;4944610;29;20465;-86
2022/11/09 03:57:30;;;;;;;9.37;1.77;;;14.00;95.60;;;;;;4945500;29;20499;-87
2022/11/09 03:59:57;;;;;;;9.07;1.90;;;14.00;94.60;;;;;;4945352;28;20459;-86
2022/11/09 04:02:25;;;;;;;6.67;2.07;;;14.20;94.60;;;;;;4944307;29;20453;-87
2022/11/09 04:04:52;;;;;;;10.53;2.30;;;14.20;94.50;;;;;;4944774;29;20475;-88
2022/11/09 04:07:19;;;;;;;10.50;2.37;;;14.20;94.60;;;;;;4944323;29;20998;-87
2022/11/09 04:09:45;;;;;;;5.80;1.87;;;14.20;94.60;;;;;;4944538;29;20456;-87
2022/11/09 04:12:12;;;;;;;7.77;1.67;;;14.20;94.60;;;;;;4943904;29;20571;-87
2022/11/09 04:14:39;;;;;;;8.17;2.20;;;14.40;94.00;;;;;;4945788;28;20495;-86
2022/11/09 04:17:06;;;;;;;10.67;2.60;;;14.20;94.00;;;;;;4944331;29;20487;-86
2022/11/09 04:19:34;;;;;;;11.53;1.80;;;14.30;94.20;;;;;;4945506;29;20483;-86
2022/11/09 04:22:01;;;;;;;6.70;1.97;;;14.20;93.90;;;;;;4944686;28;20450;-87
2022/11/09 04:24:27;;;;;;;8.97;2.10;;;14.20;93.80;;;;;;4945537;29;20456;-86
2022/11/09 04:26:54;;;;;;;18.03;2.70;;;14.30;94.40;;;;;;4944262;29;20456;-86
2022/11/09 04:29:21;;;;;;;7.20;1.63;;;14.20;93.70;;;;;;4945703;29;20833;-86
2022/11/09 04:31:48;;;;;;;10.43;2.03;;;14.30;94.00;;;;;;4944624;29;20488;-87
2022/11/09 04:34:15;;;;;;;11.00;1.97;;;14.20;93.80;;;;;;4945079;28;20525;-87
2022/11/09 04:36:44;;;;;;;9.47;2.00;;;14.30;93.80;;;;;;4944525;29;20603;-87
2022/11/09 04:39:11;;;;;;;6.80;1.97;;;14.10;94.30;;;;;;4944569;29;20467;-87
2022/11/09 04:41:38;;;;;;;10.30;2.03;;;14.10;94.20;;;;;;4944715;29;20967;-87
2022/11/09 04:44:05;;;;;;;12.23;2.33;;;14.00;94.30;;;;;;4944449;29;20456;-87
2022/11/09 04:46:31;;;;;;;10.60;1.77;;;14.00;94.60;;;;;;4943809;29;20535;-86
2022/11/09 04:48:58;;;;;;;6.13;1.47;;;13.90;94.70;;;;;;4943609;29;20480;-87
2022/11/09 04:51:26;;;;;;;6.23;1.53;;;13.90;94.30;;;;;;4943785;28;20484;-87
2022/11/09 04:53:55;;;;;;;7.00;1.80;;;14.10;94.50;;;;;;4942409;29;20484;-86
2022/11/09 04:56:22;;;;;;;6.33;1.90;;;13.90;95.30;;;;;;4941753;29;20842;-85
2022/11/09 04:58:49;;;;;;;8.73;2.40;;;13.90;96.00;;;;;;4940775;29;20481;-85
2022/11/09 05:01:16;;;;;;;8.97;2.50;;;13.70;96.50;;;;;;4941431;28;20457;-84
2022/11/09 05:03:43;;;;;;;6.13;1.70;;;13.50;97.40;;;;;;4940853;29;20464;-85
2022/11/09 05:11:58;;;;;;;9.67;2.10;;;13.30;96.90;;;;;;4918634;28;21040;-85
2022/11/09 05:14:25;;;;;;;9.87;1.90;;;13.40;96.80;;;;;;4940589;29;20461;-85
2022/11/09 05:16:52;;;;;;;7.20;2.13;;;13.50;96.90;;;;;;4940459;29;20467;-84
2022/11/09 05:19:18;;;;;;;6.93;1.80;;;13.50;96.60;;;;;;4940099;29;20461;-85
2022/11/09 05:21:45;;;;;;;6.83;1.67;;;13.60;96.20;;;;;;4939852;29;20457;-85
2022/11/09 05:24:11;;;;;;;8.13;2.30;;;13.70;96.40;;;;;;4939708;29;20465;-85
2022/11/09 05:26:40;;;;;;;8.10;1.80;;;13.70;96.60;;;;;;4939968;29;20889;-86
2022/11/09 05:29:09;;;;;;;7.93;1.53;;;13.70;96.20;;;;;;4939142;29;20487;-85
2022/11/09 05:31:37;;;;;;;7.00;1.60;;;13.80;95.70;;;;;;4938435;29;20484;-85
2022/11/09 05:34:05;;;;;;;11.13;2.40;;;13.80;95.80;;;;;;4939308;29;20484;-86
2022/11/09 05:36:33;;;;;;;6.70;2.17;;;13.80;96.00;;;;;;4938876;29;20463;-85
2022/11/09 05:39:00;;;;;;;8.40;1.80;;;13.80;96.40;;;;;;4939562;29;20818;-86
2022/11/09 05:41:27;;;;;;;10.20;2.00;;;13.70;95.90;;;;;;4939090;29;20541;-86
2022/11/09 05:43:54;;;;;;;5.63;1.63;;;13.80;95.90;;;;;;4938542;29;20560;-85
2022/11/09 05:46:22;;;;;;;4.27;1.30;;;13.70;95.10;;;;;;4939150;29;20461;-85
2022/11/09 05:48:49;;;;;;;6.87;1.40;;;13.70;93.80;;;;;;4939200;29;20921;-86
2022/11/09 05:51:15;;;;;;;5.00;1.10;;;13.60;94.30;;;;;;4938964;29;20471;-86
2022/11/09 05:53:42;;;;;;;6.00;1.50;;;13.60;95.10;;;;;;4939086;29;20540;-86
2022/11/09 05:56:11;;;;;;;8.80;1.50;;;13.60;95.60;;;;;;4939002;29;20843;-85
2022/11/09 06:02:57;;;;;;;10.40;2.27;;;13.60;96.60;;;;;;4895747;29;20629;-86
2022/11/09 06:09:09;;;;;;;12.20;2.27;;;13.40;98.70;;;;;;5039848;23;20572;-87
2022/11/09 06:11:36;;;;;;;4.40;1.87;;;13.20;99.00;;;;;;4994874;28;20885;-87
2022/11/09 06:14:55;;;;;;;10.17;2.53;;;13.20;99.50;;;;;;4996943;28;20487;-87
2022/11/09 06:17:38;;;;;;;6.50;2.07;;;13.20;99.60;;;;;;4952613;28;20490;-86
2022/11/09 06:20:33;;;;;;;5.30;2.60;;;13.10;99.60;;;;;;4997510;28;20458;-86
2022/11/09 06:23:13;;;;;;;7.23;3.17;;;13.20;99.90;;;;;;4996999;28;20836;-86
2022/11/09 06:25:47;;;;;;;6.27;2.30;;;13.10;99.90;;;;;;4996233;28;20454;-87
2022/11/09 06:28:14;;;;;;;8.83;2.97;;;13.10;99.50;;;;;;4990307;28;20509;-86
2022/11/09 06:30:41;;;;;;;6.97;2.47;;;13.10;99.70;;;;;;4997575;28;20456;-86
2022/11/09 06:33:07;;;;;;;9.00;3.13;;;13.00;99.80;;;;;;4997035;28;21015;-86
2022/11/09 06:35:35;;;;;;;7.03;3.10;;;12.90;99.90;;;;;;4997618;28;20968;-87
2022/11/09 06:38:01;;;;;;;6.37;2.30;;;12.90;99.60;;;;;;5074063;23;20507;-86
2022/11/09 06:40:29;;;;;;;6.03;2.20;;;12.90;98.90;;;;;;4939737;29;20453;-86
2022/11/09 06:42:58;;;;;;;5.33;2.30;;;12.90;98.80;;;;;;4939555;29;20452;-86
2022/11/09 06:45:26;;;;;;;8.23;3.00;;;12.80;98.80;;;;;;4939839;29;20452;-86
2022/11/09 06:47:55;;;;;;;5.60;2.30;;;12.80;99.00;;;;;;4938867;29;20483;-86
2022/11/09 06:50:42;;;;;;;4.40;1.97;;;12.90;98.80;;;;;;4939237;29;20449;-86
2022/11/09 06:53:10;;;;;;;8.10;2.07;;;12.90;98.50;;;;;;4939298;29;20507;-86
2022/11/09 06:55:38;;;;;;;5.57;2.00;;;12.90;98.80;;;;;;4940165;29;20461;-87
2022/11/09 06:58:09;;;;;;;15.90;2.70;;;12.90;98.80;;;;;;4939518;29;20553;-87
2022/11/09 07:01:28;;;;;;;6.83;3.17;;;13.00;98.90;;;;;;4939105;29;20488;-86
2022/11/09 07:17:35;;;;;;;8.53;4.97;;;12.60;99.90;;;;;;4978395;28;20475;-83
2022/11/09 07:20:03;;;;;;;11.63;8.00;;;12.50;99.90;;;;;;4977927;28;20987;-83
2022/11/09 07:22:30;;;;;;;16.70;15.50;;;12.40;99.90;;;;;;4982622;28;20524;-85
2022/11/09 07:25:02;;;;;;;29.60;27.70;;;12.30;99.90;;;;;;4982661;28;20482;-83
2022/11/09 07:27:30;;;;;;;43.93;41.93;;;12.20;99.90;;;;;;4983590;28;20478;-86
2022/11/09 07:29:59;;;;;;;59.03;56.60;;;12.20;99.90;;;;;;4982883;28;20489;-84
2022/11/09 07:32:37;;;;;;;85.20;81.87;;;12.10;99.90;;;;;;4982799;28;20459;-83
2022/11/09 07:35:05;;;;;;;101.80;98.13;;;12.10;99.90;;;;;;4983927;28;20449;-84
2022/11/09 07:40:46;;;;;;;82.43;79.17;;;12.10;99.90;;;;;;4963545;28;20455;-84
2022/11/09 07:43:13;;;;;;;97.33;93.80;;;12.10;99.90;;;;;;4984391;28;20977;-84
2022/11/09 07:45:41;;;;;;;108.00;104.00;;;12.20;99.90;;;;;;4984112;28;20459;-84
2022/11/09 07:48:10;;;;;;;89.70;86.43;;;12.10;99.90;;;;;;4985341;28;20482;-84
2022/11/09 07:50:38;;;;;;;85.60;82.57;;;12.20;99.90;;;;;;4984674;28;20457;-84
2022/11/09 07:53:06;;;;;;;60.43;57.63;;;12.20;99.90;;;;;;4985385;28;20493;-85
2022/11/09 07:55:34;;;;;;;67.33;64.57;;;12.30;99.90;;;;;;4986374;28;20482;-84
2022/11/09 07:58:02;;;;;;;72.90;70.17;;;12.40;99.90;;;;;;4984469;28;20481;-84
2022/11/09 08:00:56;;;;;;;65.63;62.90;;;12.30;99.90;;;;;;4982931;28;20469;-84
2022/11/09 08:03:25;;;;;;;49.20;47.30;;;12.40;99.90;;;;;;4981778;28;20550;-84
2022/11/09 08:05:52;;;;;;;41.17;39.47;;;12.40;99.90;;;;;;4983340;28;20570;-85
2022/11/09 08:08:25;;;;;;;34.63;33.10;;;12.60;99.90;;;;;;4981541;28;20475;-84
2022/11/09 08:11:22;;;;;;;26.63;25.33;;;12.60;99.90;;;;;;4985331;28;20459;-84
2022/11/09 08:13:49;;;;;;;12.10;11.30;;;12.80;99.90;;;;;;4975299;28;20483;-84
2022/11/09 08:16:16;;;;;;;11.03;6.93;;;12.90;99.90;;;;;;4978807;28;20458;-84
2022/11/09 08:18:44;;;;;;;9.77;5.00;;;13.00;99.90;;;;;;4980035;28;20475;-84
2022/11/09 08:21:18;;;;;;;7.27;4.10;;;13.10;99.90;;;;;;4979306;28;20463;-84
2022/11/09 08:23:45;;;;;;;9.57;3.53;;;13.20;99.90;;;;;;4980788;28;20443;-84
2022/11/09 08:26:12;;;;;;;7.43;2.87;;;13.30;99.90;;;;;;4980646;28;20964;-83
2022/11/09 08:28:51;;;;;;;8.33;2.40;;;13.40;99.40;;;;;;4979857;28;20497;-84
2022/11/09 08:31:21;;;;;;;6.43;2.27;;;13.60;98.80;;;;;;4979367;28;20549;-85
2022/11/09 08:33:49;;;;;;;6.17;2.20;;;13.70;98.50;;;;;;4978880;28;20565;-84
2022/11/09 08:36:25;;;;;;;4.93;1.60;;;13.80;98.30;;;;;;4980116;28;20454;-85
2022/11/09 08:38:51;;;;;;;5.60;1.70;;;13.90;98.20;;;;;;4979674;28;20525;-85
2022/11/09 08:41:18;;;;;;;10.17;1.83;;;14.00;96.50;;;;;;4979462;28;20459;-84
2022/11/09 08:46:26;;;;;;;5.43;1.53;;;14.10;95.70;;;;;;4977157;28;20451;-84
2022/11/09 08:48:54;;;;;;;6.03;1.90;;;14.20;95.70;;;;;;4979229;28;20509;-84
2022/11/09 08:51:21;;;;;;;10.70;1.77;;;14.30;95.50;;;;;;4978885;28;20462;-85
2022/11/09 08:53:47;;;;;;;5.73;1.83;;;14.40;95.10;;;;;;4980212;28;20482;-84
2022/11/09 08:56:17;;;;;;;8.60;2.10;;;14.40;94.40;;;;;;4977413;28;21404;-84
2022/11/09 08:58:44;;;;;;;10.53;2.30;;;14.50;94.10;;;;;;4994605;28;20482;-84
2022/11/09 09:01:21;;;;;;;8.00;2.07;;;14.50;94.70;;;;;;4999746;28;20455;-84
2022/11/09 09:03:48;;;;;;;9.90;2.10;;;14.60;94.10;;;;;;4999292;28;20504;-84
2022/11/09 09:06:16;;;;;;;6.83;1.20;;;14.60;94.10;;;;;;4997987;28;20458;-85
2022/11/09 09:08:42;;;;;;;6.50;1.73;;;14.70;94.10;;;;;;4980733;28;20475;-85
2022/11/09 09:11:09;;;;;;;7.10;1.73;;;14.60;93.40;;;;;;4977759;28;20465;-83
2022/11/09 09:13:36;;;;;;;7.57;1.77;;;14.70;92.90;;;;;;4978126;28;20930;-85
2022/11/09 09:16:10;;;;;;;6.13;1.33;;;14.70;92.90;;;;;;4977774;28;20973;-85
2022/11/09 09:18:37;;;;;;;10.57;1.60;;;14.70;92.60;;;;;;4978600;28;20854;-84
2022/11/09 09:21:25;;;;;;;9.80;2.00;;;14.80;92.90;;;;;;4978168;28;21057;-84
2022/11/09 09:26:45;;;;;;;4.70;1.33;;;14.90;92.20;;;;;;4976139;28;20451;-83
2022/11/09 09:29:13;;;;;;;7.90;1.60;;;15.10;92.50;;;;;;4978707;28;20455;-84
2022/11/09 09:31:42;;;;;;;7.40;1.50;;;15.20;91.70;;;;;;4978370;28;20509;-85
2022/11/09 09:34:27;;;;;;;7.80;1.90;;;15.20;90.50;;;;;;4977548;28;20227;-84
2022/11/09 09:36:54;;;;;;;5.70;1.93;;;15.20;90.40;;;;;;4976910;28;20470;-84
2022/11/09 09:39:22;;;;;;;9.30;1.60;;;15.20;90.50;;;;;;4977904;28;20479;-84
2022/11/09 09:42:00;;;;;;;4.87;1.60;;;15.20;90.20;;;;;;4976912;28;20502;-84
2022/11/09 09:45:01;;;;;;;5.30;1.40;;;15.20;89.40;;;;;;4977814;28;20461;-85
2022/11/09 09:47:53;;;;;;;12.40;1.90;;;15.00;88.80;;;;;;4978300;28;20530;-84
2022/11/09 09:50:24;;;;;;;7.40;2.23;;;15.00;87.40;;;;;;4977688;28;20464;-83
2022/11/09 09:53:03;;;;;;;7.20;1.60;;;15.00;87.70;;;;;;4978169;28;20471;-85
2022/11/09 09:55:46;;;;;;;6.90;1.90;;;14.90;87.10;;;;;;4977758;28;20530;-83
2022/11/09 09:58:37;;;;;;;8.80;1.87;;;14.80;86.60;;;;;;4977681;28;20893;-84
2022/11/09 10:01:14;;;;;;;5.60;1.53;;;14.80;86.50;;;;;;4977488;28;20466;-84
2022/11/09 10:03:41;;;;;;;8.27;1.60;;;15.00;85.60;;;;;;4977869;28;20458;-83
2022/11/09 10:06:37;;;;;;;9.50;1.87;;;15.20;85.20;;;;;;4977626;28;20989;-85
2022/11/09 10:09:32;;;;;;;5.37;1.50;;;15.20;84.20;;;;;;4978209;28;20479;-84
2022/11/09 10:12:15;;;;;;;4.10;1.30;;;15.10;85.10;;;;;;4977670;28;20465;-84
2022/11/09 10:15:06;;;;;;;5.27;1.60;;;15.20;84.50;;;;;;4978228;28;20476;-84
2022/11/09 10:17:41;;;;;;;9.93;1.70;;;15.10;84.50;;;;;;4977858;28;20490;-87
2022/11/09 10:20:34;;;;;;;8.10;1.50;;;15.00;84.70;;;;;;4977023;28;20460;-84
2022/11/09 10:23:18;;;;;;;4.73;1.63;;;14.90;83.40;;;;;;4977081;28;20551;-83
2022/11/09 10:26:21;;;;;;;;;;;;;;;;;;;;;
2022/11/09 10:32:32;;;;;;;5.77;1.40;;;15.70;82.10;;;;;;4976665;28;20459;-84
2022/11/09 10:35:04;;;;;;;6.90;1.77;;;15.90;82.00;;;;;;4977482;28;20487;-85
2022/11/09 10:37:36;;;;;;;6.37;1.33;;;15.80;82.10;;;;;;4976799;28;20495;-85
2022/11/09 10:40:10;;;;;;;8.30;1.20;;;15.70;82.10;;;;;;4977585;28;20451;-85
2022/11/09 10:42:37;;;;;;;5.93;1.80;;;15.80;81.60;;;;;;4975576;28;21046;-84
2022/11/09 10:45:18;;;;;;;7.57;1.70;;;15.70;81.20;;;;;;4976068;28;20455;-84
2022/11/09 10:47:49;;;;;;;8.43;1.57;;;15.80;81.60;;;;;;4976701;28;20479;-85
2022/11/09 10:50:30;;;;;;;6.30;2.03;;;15.80;78.60;;;;;;4976094;28;20972;-85
2022/11/09 10:53:14;;;;;;;12.10;1.50;;;16.10;79.70;;;;;;4976178;28;20467;-86
2022/11/09 10:55:50;;;;;;;6.03;1.30;;;16.30;75.40;;;;;;4976663;28;21113;-85
2022/11/09 10:58:26;;;;;;;5.47;2.20;;;16.80;75.20;;;;;;4977386;28;20502;-85
2022/11/09 11:01:00;;;;;;;8.50;1.40;;;17.00;75.40;;;;;;4977262;28;20460;-84
2022/11/09 11:03:28;;;;;;;5.80;1.27;;;16.80;75.20;;;;;;4976475;28;20465;-84
2022/11/09 11:06:00;;;;;;;9.10;1.83;;;16.50;75.00;;;;;;4976010;28;20457;-84
2022/11/09 11:08:31;;;;;;;9.30;1.77;;;16.30;75.50;;;;;;4976491;28;20480;-84
2022/11/09 11:11:18;;;;;;;11.90;2.10;;;16.10;76.90;;;;;;4975606;28;20954;-85
2022/11/09 11:13:47;;;;;;;6.87;1.50;;;16.10;76.30;;;;;;4975888;28;20998;-83
2022/11/09 11:16:25;;;;;;;10.47;1.60;;;16.20;78.20;;;;;;4975650;28;20494;-84
2022/11/09 11:18:52;;;;;;;9.63;1.80;;;16.80;77.70;;;;;;4975847;28;20482;-84
2022/11/09 11:21:21;;;;;;;4.47;1.13;;;17.30;73.30;;;;;;4976288;28;20514;-84
2022/11/09 11:24:11;;;;;;;8.57;1.90;;;17.30;72.10;;;;;;4976964;28;20476;-84
2022/11/09 11:26:44;;;;;;;8.23;1.67;;;17.10;70.10;;;;;;4976231;28;20461;-84
2022/11/09 11:29:26;;;;;;;6.30;1.50;;;17.10;71.20;;;;;;4976653;28;20483;-84
2022/11/09 11:31:54;;;;;;;7.33;1.30;;;17.10;70.00;;;;;;4976462;28;20455;-85
2022/11/09 11:34:21;;;;;;;6.80;1.43;;;17.20;68.70;;;;;;4976908;28;20548;-84
2022/11/09 11:37:05;;;;;;;6.30;1.30;;;17.40;68.80;;;;;;4976807;28;20466;-84
2022/11/09 11:39:43;;;;;;;10.30;1.70;;;17.30;67.60;;;;;;4976604;28;20516;-86
2022/11/09 11:42:29;;;;;;;7.90;1.70;;;17.70;68.00;;;;;;4977335;28;20519;-85
2022/11/09 11:45:12;;;;;;;6.27;1.70;;;18.00;65.50;;;;;;4976897;28;20451;-84
2022/11/09 11:47:50;;;;;;;9.13;1.77;;;18.40;63.70;;;;;;4977895;28;20488;-85
2022/11/09 11:50:28;;;;;;;9.10;3.20;;;18.40;63.30;;;;;;4977259;28;20457;-85
2022/11/09 11:53:13;;;;;;;11.07;1.70;;;18.50;64.30;;;;;;4976499;28;20450;-85
2022/11/09 11:55:56;;;;;;;6.00;1.40;;;18.50;63.30;;;;;;4976186;28;20483;-84
2022/11/09 11:58:35;;;;;;;12.90;1.97;;;18.50;62.50;;;;;;4976672;28;20472;-85
2022/11/09 12:01:12;;;;;;;10.10;1.70;;;18.40;60.40;;;;;;4974722;28;20459;-84
2022/11/09 12:03:55;;;;;;;10.00;2.00;;;18.60;61.40;;;;;;4978506;28;20481;-84
2022/11/09 12:06:34;;;;;;;6.87;1.93;;;18.70;61.70;;;;;;4976943;28;20473;-85
2022/11/09 12:09:10;;;;;;;10.27;1.40;;;18.60;60.90;;;;;;4979090;28;20476;-84
2022/11/09 12:11:56;;;;;;;7.57;1.30;;;18.70;60.70;;;;;;4979183;28;20466;-84
2022/11/09 12:14:35;;;;;;;7.20;1.63;;;18.80;60.80;;;;;;4978345;28;20485;-85
2022/11/09 12:17:12;;;;;;;9.03;1.97;;;18.50;61.30;;;;;;4979604;28;20471;-84
2022/11/09 12:20:03;;;;;;;10.10;1.37;;;18.50;60.50;;;;;;4980005;28;20960;-85
2022/11/09 12:22:39;;;;;;;8.20;1.40;;;18.30;61.30;;;;;;4980292;28;21021;-85
2022/11/09 12:25:14;;;;;;;6.33;1.50;;;18.20;58.10;;;;;;4980315;28;20457;-85
2022/11/09 12:28:20;;;;;;;12.10;1.70;;;17.80;59.70;;;;;;4980390;28;20500;-86
2022/11/09 12:30:58;;;;;;;6.47;1.70;;;17.60;61.20;;;;;;4979950;28;20540;-85
2022/11/09 12:33:34;;;;;;;7.30;1.50;;;17.70;61.70;;;;;;4980278;28;20494;-84
2022/11/09 12:36:09;;;;;;;8.90;1.47;;;18.10;61.10;;;;;;4980497;28;20483;-85
2022/11/09 12:38:46;;;;;;;8.50;1.57;;;18.00;58.00;;;;;;4980176;28;20575;-86
2022/11/09 12:41:16;;;;;;;7.43;1.50;;;17.40;59.40;;;;;;4979709;28;20459;-84
2022/11/09 12:43:49;;;;;;;7.10;1.30;;;17.20;62.40;;;;;;4980772;28;20450;-85
2022/11/09 12:46:20;;;;;;;8.60;1.73;;;16.80;63.10;;;;;;4979278;28;20459;-85
2022/11/09 12:48:48;;;;;;;7.50;1.47;;;16.40;64.90;;;;;;4979714;28;20485;-85
2022/11/09 12:51:17;;;;;;;10.17;1.87;;;16.00;66.40;;;;;;4979104;28;20553;-84
2022/11/09 12:53:43;;;;;;;8.70;1.70;;;15.80;66.30;;;;;;4978567;28;20466;-84
2022/11/09 12:56:17;;;;;;;6.17;1.50;;;15.80;68.20;;;;;;4978581;28;20459;-84
2022/11/09 12:58:44;;;;;;;7.37;1.67;;;15.70;68.60;;;;;;4978080;28;20475;-85
2022/11/09 13:01:14;;;;;;;11.10;1.80;;;15.70;69.10;;;;;;4977905;28;21125;-85
2022/11/09 13:03:53;;;;;;;12.70;1.97;;;15.60;69.20;;;;;;4979340;28;20456;-84
2022/11/09 13:06:24;;;;;;;9.40;2.17;;;15.60;69.60;;;;;;4978355;28;20483;-84
2022/11/09 13:09:02;;;;;;;6.10;1.20;;;15.50;70.70;;;;;;4978772;28;20500;-85
2022/11/09 13:11:37;;;;;;;6.23;1.20;;;15.70;70.50;;;;;;4978494;28;20458;-82
2022/11/09 13:14:40;;;;;;;9.90;2.30;;;15.90;69.30;;;;;;4978417;28;20516;-84
2022/11/09 13:17:51;;;;;;;11.17;1.87;;;16.10;68.90;;;;;;4978527;28;21103;-84
2022/11/09 13:20:44;;;;;;;12.33;1.67;;;16.10;70.40;;;;;;4975718;28;20496;-83
2022/11/09 13:23:46;;;;;;;10.70;2.13;;;16.40;68.60;;;;;;4976299;28;20462;-83
2022/11/09 13:26:23;;;;;;;5.50;1.30;;;16.30;68.30;;;;;;4974104;28;20459;-85
2022/11/09 13:29:29;;;;;;;6.23;1.90;;;16.10;69.60;;;;;;4978870;28;20482;-83
2022/11/09 13:32:02;;;;;;;9.50;2.03;;;15.80;69.40;;;;;;4986337;28;20446;-81
2022/11/09 13:34:57;;;;;;;6.63;1.60;;;16.00;71.10;;;;;;4984062;28;20886;-86
2022/11/09 13:37:56;;;;;;;8.63;1.70;;;15.90;70.70;;;;;;4979029;28;20945;-84
2022/11/09 13:40:52;;;;;;;7.43;1.73;;;15.80;69.00;;;;;;4920404;29;20468;-85
2022/11/09 13:49:50;;;;;;;10.23;1.77;;;15.20;70.00;;;;;;4962884;23;21001;-84
2022/11/09 13:52:51;;;;;;;9.40;1.60;;;15.10;71.20;;;;;;4900752;29;20528;-85
2022/11/09 13:55:29;;;;;;;7.47;1.30;;;15.10;71.10;;;;;;4899775;29;20516;-83
2022/11/09 13:58:01;;;;;;;6.73;1.70;;;15.10;73.40;;;;;;4899012;29;20903;-84